sensor_id;sensor_type;location;lat;lon;timestamp;P1;durP1;ratioP1;P2;durP2;ratioP2
40675;SDS011;26359;48.750;9.314;2022-11-20T00:00:02;12.55;;;11.63;;
40675;SDS011;26359;48.750;9.314;2022-11-20T00:02:28;8.38;;;7.68;;
40675;SDS011;26359;48.750;9.314;2022-11-20T00:04:54;7.55;;;6.85;;
40675;SDS011;26359;48.750;9.314;2022-11-20T00:07:19;8.80;;;8.05;;
40675;SDS011;26359;48.750;9.314;2022-11-20T00:09:45;11.45;;;10.55;;
40675;SDS011;26359;48.750;9.314;2022-11-20T00:12:10;12.15;;;11.15;;
40675;SDS011;26359;48.750;9.314;2022-11-20T00:14:36;8.60;;;7.88;;
40675;SDS011;26359;48.750;9.314;2022-11-20T00:17:01;8.95;;;8.23;;
40675;SDS011;26359;48.750;9.314;2022-11-20T00:19:27;12.30;;;11.25;;
40675;SDS011;26359;48.750;9.314;2022-11-20T00:21:52;9.95;;;9.05;;
40675;SDS011;26359;48.750;9.314;2022-11-20T00:24:20;17.75;;;16.52;;
40675;SDS011;26359;48.750;9.314;2022-11-20T00:26:45;17.40;;;16.20;;
40675;SDS011;26359;48.750;9.314;2022-11-20T00:29:11;26.25;;;24.58;;
40675;SDS011;26359;48.750;9.314;2022-11-20T00:31:36;24.02;;;22.25;;
40675;SDS011;26359;48.750;9.314;2022-11-20T00:34:02;16.20;;;14.98;;
40675;SDS011;26359;48.750;9.314;2022-11-20T00:36:28;12.25;;;11.15;;
40675;SDS011;26359;48.750;9.314;2022-11-20T00:38:57;10.55;;;9.75;;
40675;SDS011;26359;48.750;9.314;2022-11-20T00:41:23;12.35;;;11.35;;
40675;SDS011;26359;48.750;9.314;2022-11-20T00:43:51;15.57;;;14.20;;
40675;SDS011;26359;48.750;9.314;2022-11-20T00:46:18;12.55;;;11.27;;
40675;SDS011;26359;48.750;9.314;2022-11-20T00:48:45;15.05;;;13.95;;
40675;SDS011;26359;48.750;9.314;2022-11-20T00:51:13;35.17;;;33.03;;
40675;SDS011;26359;48.750;9.314;2022-11-20T00:53:40;12.60;;;11.70;;
40675;SDS011;26359;48.750;9.314;2022-11-20T00:56:06;15.43;;;14.40;;
40675;SDS011;26359;48.750;9.314;2022-11-20T00:58:35;17.55;;;16.33;;
40675;SDS011;26359;48.750;9.314;2022-11-20T01:03:32;36.97;;;34.90;;
40675;SDS011;26359;48.750;9.314;2022-11-20T01:06:00;42.50;;;40.05;;
40675;SDS011;26359;48.750;9.314;2022-11-20T01:08:29;26.00;;;24.30;;
40675;SDS011;26359;48.750;9.314;2022-11-20T01:11:03;26.88;;;25.17;;
40675;SDS011;26359;48.750;9.314;2022-11-20T01:13:31;33.90;;;31.85;;
40675;SDS011;26359;48.750;9.314;2022-11-20T01:18:40;7.65;;;6.85;;
40675;SDS011;26359;48.750;9.314;2022-11-20T01:21:08;30.30;;;28.38;;
40675;SDS011;26359;48.750;9.314;2022-11-20T01:23:36;41.78;;;39.33;;
40675;SDS011;26359;48.750;9.314;2022-11-20T01:26:03;47.05;;;44.40;;
40675;SDS011;26359;48.750;9.314;2022-11-20T01:28:30;58.90;;;55.63;;
40675;SDS011;26359;48.750;9.314;2022-11-20T01:30:56;14.35;;;13.35;;
40675;SDS011;26359;48.750;9.314;2022-11-20T01:33:22;12.77;;;11.88;;
40675;SDS011;26359;48.750;9.314;2022-11-20T01:35:47;45.85;;;43.35;;
40675;SDS011;26359;48.750;9.314;2022-11-20T01:38:14;56.45;;;53.45;;
40675;SDS011;26359;48.750;9.314;2022-11-20T01:40:40;23.80;;;22.38;;
40675;SDS011;26359;48.750;9.314;2022-11-20T01:43:14;10.98;;;9.98;;
40675;SDS011;26359;48.750;9.314;2022-11-20T01:48:42;9.38;;;8.57;;
40675;SDS011;26359;48.750;9.314;2022-11-20T01:51:19;7.97;;;7.38;;
40675;SDS011;26359;48.750;9.314;2022-11-20T01:53:46;8.60;;;7.93;;
40675;SDS011;26359;48.750;9.314;2022-11-20T01:56:12;8.07;;;7.47;;
40675;SDS011;26359;48.750;9.314;2022-11-20T01:58:41;7.00;;;6.35;;
40675;SDS011;26359;48.750;9.314;2022-11-20T02:01:11;8.25;;;7.50;;
40675;SDS011;26359;48.750;9.314;2022-11-20T02:03:38;7.35;;;6.80;;
40675;SDS011;26359;48.750;9.314;2022-11-20T02:08:41;7.65;;;6.95;;
40675;SDS011;26359;48.750;9.314;2022-11-20T02:11:07;6.20;;;5.80;;
40675;SDS011;26359;48.750;9.314;2022-11-20T02:13:33;6.65;;;5.90;;
40675;SDS011;26359;48.750;9.314;2022-11-20T02:16:10;7.05;;;6.13;;
40675;SDS011;26359;48.750;9.314;2022-11-20T02:18:39;7.78;;;7.28;;
40675;SDS011;26359;48.750;9.314;2022-11-20T02:21:21;6.65;;;6.05;;
40675;SDS011;26359;48.750;9.314;2022-11-20T02:26:37;6.00;;;5.50;;
40675;SDS011;26359;48.750;9.314;2022-11-20T02:29:07;9.25;;;8.52;;
40675;SDS011;26359;48.750;9.314;2022-11-20T02:31:40;9.57;;;8.93;;
40675;SDS011;26359;48.750;9.314;2022-11-20T02:34:07;11.02;;;10.18;;
40675;SDS011;26359;48.750;9.314;2022-11-20T02:36:33;8.68;;;7.90;;
40675;SDS011;26359;48.750;9.314;2022-11-20T02:39:01;8.30;;;7.63;;
40675;SDS011;26359;48.750;9.314;2022-11-20T02:41:34;14.30;;;13.30;;
40675;SDS011;26359;48.750;9.314;2022-11-20T02:44:01;8.60;;;7.90;;
40675;SDS011;26359;48.750;9.314;2022-11-20T02:46:28;7.20;;;6.60;;
40675;SDS011;26359;48.750;9.314;2022-11-20T02:48:54;7.50;;;6.85;;
40675;SDS011;26359;48.750;9.314;2022-11-20T02:51:20;6.90;;;6.32;;
40675;SDS011;26359;48.750;9.314;2022-11-20T02:53:45;9.63;;;8.80;;
40675;SDS011;26359;48.750;9.314;2022-11-20T02:56:11;10.20;;;9.40;;
40675;SDS011;26359;48.750;9.314;2022-11-20T02:58:36;11.23;;;10.32;;
40675;SDS011;26359;48.750;9.314;2022-11-20T03:01:02;10.27;;;9.55;;
40675;SDS011;26359;48.750;9.314;2022-11-20T03:03:27;10.40;;;9.52;;
40675;SDS011;26359;48.750;9.314;2022-11-20T03:05:53;8.55;;;7.60;;
40675;SDS011;26359;48.750;9.314;2022-11-20T03:08:18;9.70;;;9.00;;
40675;SDS011;26359;48.750;9.314;2022-11-20T03:10:44;9.70;;;8.90;;
40675;SDS011;26359;48.750;9.314;2022-11-20T03:13:09;19.63;;;18.38;;
40675;SDS011;26359;48.750;9.314;2022-11-20T03:15:36;24.38;;;22.90;;
40675;SDS011;26359;48.750;9.314;2022-11-20T03:18:02;13.35;;;12.20;;
40675;SDS011;26359;48.750;9.314;2022-11-20T03:20:28;30.00;;;28.15;;
40675;SDS011;26359;48.750;9.314;2022-11-20T03:22:54;18.02;;;16.67;;
40675;SDS011;26359;48.750;9.314;2022-11-20T03:25:20;22.45;;;21.10;;
40675;SDS011;26359;48.750;9.314;2022-11-20T03:27:46;6.10;;;5.60;;
40675;SDS011;26359;48.750;9.314;2022-11-20T03:30:11;6.78;;;6.18;;
40675;SDS011;26359;48.750;9.314;2022-11-20T03:32:37;7.15;;;6.53;;
40675;SDS011;26359;48.750;9.314;2022-11-20T03:35:03;8.00;;;6.88;;
40675;SDS011;26359;48.750;9.314;2022-11-20T03:37:29;10.35;;;9.52;;
40675;SDS011;26359;48.750;9.314;2022-11-20T03:39:54;6.47;;;6.00;;
40675;SDS011;26359;48.750;9.314;2022-11-20T03:42:20;8.88;;;8.23;;
40675;SDS011;26359;48.750;9.314;2022-11-20T03:45:04;9.70;;;8.80;;
40675;SDS011;26359;48.750;9.314;2022-11-20T03:47:30;27.05;;;25.42;;
40675;SDS011;26359;48.750;9.314;2022-11-20T03:49:56;28.60;;;26.90;;
40675;SDS011;26359;48.750;9.314;2022-11-20T03:52:21;7.63;;;7.05;;
40675;SDS011;26359;48.750;9.314;2022-11-20T03:54:47;21.70;;;20.27;;
40675;SDS011;26359;48.750;9.314;2022-11-20T03:57:12;9.35;;;8.57;;
40675;SDS011;26359;48.750;9.314;2022-11-20T03:59:38;8.88;;;8.18;;
40675;SDS011;26359;48.750;9.314;2022-11-20T04:02:03;7.28;;;6.57;;
40675;SDS011;26359;48.750;9.314;2022-11-20T04:04:29;12.07;;;11.02;;
40675;SDS011;26359;48.750;9.314;2022-11-20T04:06:54;18.13;;;16.92;;
40675;SDS011;26359;48.750;9.314;2022-11-20T04:09:20;17.80;;;16.60;;
40675;SDS011;26359;48.750;9.314;2022-11-20T04:11:45;22.10;;;20.67;;
40675;SDS011;26359;48.750;9.314;2022-11-20T04:14:12;17.65;;;16.42;;
40675;SDS011;26359;48.750;9.314;2022-11-20T04:16:39;8.85;;;8.15;;
40675;SDS011;26359;48.750;9.314;2022-11-20T04:19:06;8.43;;;7.72;;
40675;SDS011;26359;48.750;9.314;2022-11-20T04:21:34;8.73;;;7.95;;
40675;SDS011;26359;48.750;9.314;2022-11-20T04:24:00;7.10;;;6.40;;
40675;SDS011;26359;48.750;9.314;2022-11-20T04:26:26;5.13;;;4.65;;
40675;SDS011;26359;48.750;9.314;2022-11-20T04:28:53;8.18;;;7.47;;
40675;SDS011;26359;48.750;9.314;2022-11-20T04:31:23;9.50;;;8.77;;
40675;SDS011;26359;48.750;9.314;2022-11-20T04:33:54;10.88;;;9.98;;
40675;SDS011;26359;48.750;9.314;2022-11-20T04:36:20;6.68;;;6.05;;
40675;SDS011;26359;48.750;9.314;2022-11-20T04:38:51;10.38;;;9.55;;
40675;SDS011;26359;48.750;9.314;2022-11-20T04:41:18;10.90;;;10.05;;
40675;SDS011;26359;48.750;9.314;2022-11-20T04:43:46;9.30;;;8.70;;
40675;SDS011;26359;48.750;9.314;2022-11-20T04:46:15;8.98;;;8.13;;
40675;SDS011;26359;48.750;9.314;2022-11-20T04:48:42;12.75;;;11.85;;
40675;SDS011;26359;48.750;9.314;2022-11-20T04:51:08;7.60;;;7.00;;
40675;SDS011;26359;48.750;9.314;2022-11-20T04:53:33;7.50;;;6.90;;
40675;SDS011;26359;48.750;9.314;2022-11-20T04:55:59;10.50;;;9.60;;
40675;SDS011;26359;48.750;9.314;2022-11-20T04:58:26;8.68;;;7.93;;
40675;SDS011;26359;48.750;9.314;2022-11-20T05:00:52;12.13;;;11.23;;
40675;SDS011;26359;48.750;9.314;2022-11-20T05:03:17;8.55;;;7.93;;
40675;SDS011;26359;48.750;9.314;2022-11-20T05:05:43;7.88;;;7.28;;
40675;SDS011;26359;48.750;9.314;2022-11-20T05:08:08;8.32;;;7.68;;
40675;SDS011;26359;48.750;9.314;2022-11-20T05:10:34;7.43;;;6.70;;
40675;SDS011;26359;48.750;9.314;2022-11-20T05:12:59;6.40;;;5.30;;
40675;SDS011;26359;48.750;9.314;2022-11-20T05:15:25;6.18;;;5.57;;
40675;SDS011;26359;48.750;9.314;2022-11-20T05:17:51;6.80;;;6.20;;
40675;SDS011;26359;48.750;9.314;2022-11-20T05:20:17;7.30;;;5.50;;
40675;SDS011;26359;48.750;9.314;2022-11-20T05:22:43;5.82;;;5.20;;
40675;SDS011;26359;48.750;9.314;2022-11-20T05:25:09;7.30;;;6.57;;
40675;SDS011;26359;48.750;9.314;2022-11-20T05:27:36;14.20;;;13.25;;
40675;SDS011;26359;48.750;9.314;2022-11-20T05:30:02;11.82;;;11.00;;
40675;SDS011;26359;48.750;9.314;2022-11-20T05:32:31;11.90;;;11.00;;
40675;SDS011;26359;48.750;9.314;2022-11-20T05:34:56;11.15;;;10.30;;
40675;SDS011;26359;48.750;9.314;2022-11-20T05:37:22;7.78;;;6.95;;
40675;SDS011;26359;48.750;9.314;2022-11-20T05:39:47;7.88;;;6.97;;
40675;SDS011;26359;48.750;9.314;2022-11-20T05:42:13;6.38;;;5.88;;
40675;SDS011;26359;48.750;9.314;2022-11-20T05:44:57;5.22;;;4.82;;
40675;SDS011;26359;48.750;9.314;2022-11-20T05:47:28;7.15;;;6.55;;
40675;SDS011;26359;48.750;9.314;2022-11-20T05:49:57;7.57;;;6.97;;
40675;SDS011;26359;48.750;9.314;2022-11-20T05:52:23;6.57;;;6.13;;
40675;SDS011;26359;48.750;9.314;2022-11-20T05:54:48;6.78;;;6.18;;
40675;SDS011;26359;48.750;9.314;2022-11-20T05:57:14;6.22;;;5.43;;
40675;SDS011;26359;48.750;9.314;2022-11-20T05:59:39;6.50;;;5.85;;
40675;SDS011;26359;48.750;9.314;2022-11-20T06:02:05;7.07;;;6.47;;
40675;SDS011;26359;48.750;9.314;2022-11-20T06:04:30;6.93;;;6.30;;
40675;SDS011;26359;48.750;9.314;2022-11-20T06:06:56;5.82;;;5.43;;
40675;SDS011;26359;48.750;9.314;2022-11-20T06:09:21;5.25;;;4.75;;
40675;SDS011;26359;48.750;9.314;2022-11-20T06:11:47;7.82;;;5.57;;
40675;SDS011;26359;48.750;9.314;2022-11-20T06:14:12;5.75;;;5.25;;
40675;SDS011;26359;48.750;9.314;2022-11-20T06:16:38;5.95;;;5.45;;
40675;SDS011;26359;48.750;9.314;2022-11-20T06:19:04;5.60;;;5.10;;
40675;SDS011;26359;48.750;9.314;2022-11-20T06:21:29;5.97;;;5.50;;
40675;SDS011;26359;48.750;9.314;2022-11-20T06:23:55;5.97;;;5.47;;
40675;SDS011;26359;48.750;9.314;2022-11-20T06:26:24;5.68;;;5.18;;
40675;SDS011;26359;48.750;9.314;2022-11-20T06:28:52;5.22;;;4.57;;
40675;SDS011;26359;48.750;9.314;2022-11-20T06:31:19;6.25;;;5.85;;
40675;SDS011;26359;48.750;9.314;2022-11-20T06:33:47;9.85;;;9.18;;
40675;SDS011;26359;48.750;9.314;2022-11-20T06:36:13;5.28;;;4.88;;
40675;SDS011;26359;48.750;9.314;2022-11-20T06:38:40;12.15;;;11.35;;
40675;SDS011;26359;48.750;9.314;2022-11-20T06:41:07;10.70;;;9.93;;
40675;SDS011;26359;48.750;9.314;2022-11-20T06:43:36;6.60;;;6.05;;
40675;SDS011;26359;48.750;9.314;2022-11-20T06:46:01;5.45;;;4.95;;
40675;SDS011;26359;48.750;9.314;2022-11-20T06:48:27;6.95;;;6.43;;
40675;SDS011;26359;48.750;9.314;2022-11-20T06:50:53;6.57;;;5.55;;
40675;SDS011;26359;48.750;9.314;2022-11-20T06:53:19;5.45;;;5.05;;
40675;SDS011;26359;48.750;9.314;2022-11-20T06:55:45;6.25;;;4.68;;
40675;SDS011;26359;48.750;9.314;2022-11-20T06:58:12;6.18;;;5.57;;
40675;SDS011;26359;48.750;9.314;2022-11-20T07:00:38;6.20;;;5.80;;
40675;SDS011;26359;48.750;9.314;2022-11-20T07:03:04;6.03;;;5.50;;
40675;SDS011;26359;48.750;9.314;2022-11-20T07:05:30;5.97;;;5.45;;
40675;SDS011;26359;48.750;9.314;2022-11-20T07:07:56;10.68;;;10.00;;
40675;SDS011;26359;48.750;9.314;2022-11-20T07:10:22;19.52;;;18.35;;
40675;SDS011;26359;48.750;9.314;2022-11-20T07:12:49;9.18;;;8.57;;
40675;SDS011;26359;48.750;9.314;2022-11-20T07:15:15;17.10;;;16.05;;
40675;SDS011;26359;48.750;9.314;2022-11-20T07:17:42;15.05;;;14.05;;
40675;SDS011;26359;48.750;9.314;2022-11-20T07:20:07;17.27;;;16.27;;
40675;SDS011;26359;48.750;9.314;2022-11-20T07:22:33;17.73;;;16.55;;
40675;SDS011;26359;48.750;9.314;2022-11-20T07:24:59;16.17;;;15.27;;
40675;SDS011;26359;48.750;9.314;2022-11-20T07:27:25;17.85;;;16.73;;
40675;SDS011;26359;48.750;9.314;2022-11-20T07:29:51;6.65;;;6.18;;
40675;SDS011;26359;48.750;9.314;2022-11-20T07:32:16;14.38;;;13.52;;
40675;SDS011;26359;48.750;9.314;2022-11-20T07:34:42;14.98;;;13.98;;
40675;SDS011;26359;48.750;9.314;2022-11-20T07:37:07;11.50;;;10.70;;
40675;SDS011;26359;48.750;9.314;2022-11-20T07:39:33;11.45;;;10.70;;
40675;SDS011;26359;48.750;9.314;2022-11-20T07:41:58;12.73;;;11.88;;
40675;SDS011;26359;48.750;9.314;2022-11-20T07:44:24;12.23;;;11.43;;
40675;SDS011;26359;48.750;9.314;2022-11-20T07:46:49;16.83;;;15.77;;
40675;SDS011;26359;48.750;9.314;2022-11-20T07:49:15;11.23;;;10.43;;
40675;SDS011;26359;48.750;9.314;2022-11-20T07:51:40;18.60;;;17.55;;
40675;SDS011;26359;48.750;9.314;2022-11-20T07:54:06;13.18;;;12.38;;
40675;SDS011;26359;48.750;9.314;2022-11-20T07:56:31;14.75;;;13.85;;
40675;SDS011;26359;48.750;9.314;2022-11-20T07:58:57;13.52;;;12.63;;
40675;SDS011;26359;48.750;9.314;2022-11-20T08:01:22;9.98;;;9.27;;
40675;SDS011;26359;48.750;9.314;2022-11-20T08:03:48;6.97;;;6.47;;
40675;SDS011;26359;48.750;9.314;2022-11-20T08:06:14;12.20;;;11.38;;
40675;SDS011;26359;48.750;9.314;2022-11-20T08:08:39;12.68;;;11.90;;
40675;SDS011;26359;48.750;9.314;2022-11-20T08:11:05;8.52;;;7.85;;
40675;SDS011;26359;48.750;9.314;2022-11-20T08:13:50;5.45;;;4.95;;
40675;SDS011;26359;48.750;9.314;2022-11-20T08:16:34;5.63;;;5.13;;
40675;SDS011;26359;48.750;9.314;2022-11-20T08:18:59;8.18;;;7.60;;
40675;SDS011;26359;48.750;9.314;2022-11-20T08:21:25;5.78;;;5.38;;
40675;SDS011;26359;48.750;9.314;2022-11-20T08:23:50;12.77;;;11.77;;
40675;SDS011;26359;48.750;9.314;2022-11-20T08:26:16;16.00;;;15.02;;
40675;SDS011;26359;48.750;9.314;2022-11-20T08:28:41;11.15;;;10.45;;
40675;SDS011;26359;48.750;9.314;2022-11-20T08:31:07;8.82;;;8.20;;
40675;SDS011;26359;48.750;9.314;2022-11-20T08:33:34;13.57;;;12.70;;
40675;SDS011;26359;48.750;9.314;2022-11-20T08:36:00;15.73;;;14.73;;
40675;SDS011;26359;48.750;9.314;2022-11-20T08:38:27;10.65;;;9.85;;
40675;SDS011;26359;48.750;9.314;2022-11-20T08:40:56;10.95;;;10.30;;
40675;SDS011;26359;48.750;9.314;2022-11-20T08:43:41;12.15;;;11.35;;
40675;SDS011;26359;48.750;9.314;2022-11-20T08:46:06;12.95;;;12.18;;
40675;SDS011;26359;48.750;9.314;2022-11-20T08:48:32;17.42;;;16.40;;
40675;SDS011;26359;48.750;9.314;2022-11-20T08:50:58;8.25;;;7.70;;
40675;SDS011;26359;48.750;9.314;2022-11-20T08:53:24;9.68;;;8.98;;
40675;SDS011;26359;48.750;9.314;2022-11-20T08:55:50;12.88;;;12.13;;
40675;SDS011;26359;48.750;9.314;2022-11-20T08:58:15;12.32;;;11.55;;
40675;SDS011;26359;48.750;9.314;2022-11-20T09:00:41;10.90;;;10.13;;
40675;SDS011;26359;48.750;9.314;2022-11-20T09:03:06;10.32;;;9.63;;
40675;SDS011;26359;48.750;9.314;2022-11-20T09:05:32;4.72;;;4.25;;
40675;SDS011;26359;48.750;9.314;2022-11-20T09:07:58;5.93;;;5.43;;
40675;SDS011;26359;48.750;9.314;2022-11-20T09:10:24;5.45;;;5.05;;
40675;SDS011;26359;48.750;9.314;2022-11-20T09:12:50;4.40;;;4.00;;
40675;SDS011;26359;48.750;9.314;2022-11-20T09:15:20;6.88;;;5.18;;
40675;SDS011;26359;48.750;9.314;2022-11-20T09:17:53;5.85;;;5.35;;
40675;SDS011;26359;48.750;9.314;2022-11-20T09:20:23;6.18;;;5.68;;
40675;SDS011;26359;48.750;9.314;2022-11-20T09:22:55;5.35;;;5.05;;
40675;SDS011;26359;48.750;9.314;2022-11-20T09:25:30;12.32;;;11.63;;
40675;SDS011;26359;48.750;9.314;2022-11-20T09:27:59;7.43;;;6.93;;
40675;SDS011;26359;48.750;9.314;2022-11-20T09:30:25;6.78;;;6.32;;
40675;SDS011;26359;48.750;9.314;2022-11-20T09:32:54;6.10;;;5.80;;
40675;SDS011;26359;48.750;9.314;2022-11-20T09:35:22;7.95;;;7.35;;
40675;SDS011;26359;48.750;9.314;2022-11-20T09:37:50;8.13;;;7.63;;
40675;SDS011;26359;48.750;9.314;2022-11-20T09:40:32;7.20;;;6.80;;
40675;SDS011;26359;48.750;9.314;2022-11-20T09:45:56;8.00;;;7.60;;
40675;SDS011;26359;48.750;9.314;2022-11-20T09:51:20;5.35;;;5.05;;
40675;SDS011;26359;48.750;9.314;2022-11-20T09:56:50;4.82;;;4.53;;
40675;SDS011;26359;48.750;9.314;2022-11-20T10:01:51;11.63;;;10.93;;
40675;SDS011;26359;48.750;9.314;2022-11-20T10:04:19;13.85;;;13.15;;
40675;SDS011;26359;48.750;9.314;2022-11-20T10:09:37;8.63;;;8.23;;
40675;SDS011;26359;48.750;9.314;2022-11-20T10:15:02;10.70;;;10.20;;
40675;SDS011;26359;48.750;9.314;2022-11-20T10:18:35;5.40;;;5.10;;
40675;SDS011;26359;48.750;9.314;2022-11-20T10:20:43;5.47;;;4.95;;
40675;SDS011;26359;48.750;9.314;2022-11-20T10:26:16;2.20;;;2.10;;
40675;SDS011;26359;48.750;9.314;2022-11-20T10:31:23;7.93;;;7.53;;
40675;SDS011;26359;48.750;9.314;2022-11-20T10:33:56;3.10;;;2.90;;
40675;SDS011;26359;48.750;9.314;2022-11-20T10:36:28;3.55;;;3.35;;
40675;SDS011;26359;48.750;9.314;2022-11-20T10:39:03;5.43;;;5.13;;
40675;SDS011;26359;48.750;9.314;2022-11-20T10:41:40;6.05;;;5.75;;
40675;SDS011;26359;48.750;9.314;2022-11-20T10:44:11;9.35;;;8.82;;
40675;SDS011;26359;48.750;9.314;2022-11-20T10:47:02;3.72;;;3.47;;
40675;SDS011;26359;48.750;9.314;2022-11-20T10:49:30;6.63;;;6.30;;
40675;SDS011;26359;48.750;9.314;2022-11-20T10:52:32;3.75;;;3.40;;
40675;SDS011;26359;48.750;9.314;2022-11-20T10:57:52;5.38;;;5.03;;
40675;SDS011;26359;48.750;9.314;2022-11-20T11:00:20;2.33;;;2.22;;
40675;SDS011;26359;48.750;9.314;2022-11-20T11:02:47;3.17;;;2.97;;
40675;SDS011;26359;48.750;9.314;2022-11-20T11:07:45;4.20;;;3.15;;
40675;SDS011;26359;48.750;9.314;2022-11-20T11:13:07;2.60;;;2.40;;
40675;SDS011;26359;48.750;9.314;2022-11-20T11:15:43;2.70;;;2.47;;
40675;SDS011;26359;48.750;9.314;2022-11-20T11:18:10;3.03;;;2.83;;
40675;SDS011;26359;48.750;9.314;2022-11-20T11:20:36;5.22;;;4.90;;
40675;SDS011;26359;48.750;9.314;2022-11-20T11:23:02;5.32;;;4.93;;
40675;SDS011;26359;48.750;9.314;2022-11-20T11:25:33;4.43;;;4.22;;
40675;SDS011;26359;48.750;9.314;2022-11-20T11:28:01;5.82;;;5.53;;
40675;SDS011;26359;48.750;9.314;2022-11-20T11:30:29;5.82;;;5.25;;
40675;SDS011;26359;48.750;9.314;2022-11-20T11:33:06;4.20;;;3.90;;
40675;SDS011;26359;48.750;9.314;2022-11-20T11:35:38;3.72;;;3.50;;
40675;SDS011;26359;48.750;9.314;2022-11-20T11:38:16;3.72;;;3.33;;
40675;SDS011;26359;48.750;9.314;2022-11-20T11:40:46;4.07;;;3.78;;
40675;SDS011;26359;48.750;9.314;2022-11-20T11:43:19;3.97;;;3.67;;
40675;SDS011;26359;48.750;9.314;2022-11-20T11:46:40;2.65;;;2.45;;
40675;SDS011;26359;48.750;9.314;2022-11-20T11:51:31;2.60;;;2.40;;
40675;SDS011;26359;48.750;9.314;2022-11-20T11:54:15;2.70;;;2.05;;
40675;SDS011;26359;48.750;9.314;2022-11-20T11:56:54;2.97;;;2.78;;
40675;SDS011;26359;48.750;9.314;2022-11-20T11:59:27;4.03;;;3.15;;
40675;SDS011;26359;48.750;9.314;2022-11-20T12:02:15;3.92;;;3.63;;
40675;SDS011;26359;48.750;9.314;2022-11-20T12:05:02;4.05;;;3.75;;
40675;SDS011;26359;48.750;9.314;2022-11-20T12:07:42;5.18;;;3.75;;
40675;SDS011;26359;48.750;9.314;2022-11-20T12:17:12;4.63;;;3.90;;
40675;SDS011;26359;48.750;9.314;2022-11-20T12:19:55;4.60;;;2.88;;
40675;SDS011;26359;48.750;9.314;2022-11-20T12:22:48;3.72;;;3.30;;
40675;SDS011;26359;48.750;9.314;2022-11-20T12:25:36;4.65;;;3.58;;
40675;SDS011;26359;48.750;9.314;2022-11-20T12:31:22;3.60;;;3.30;;
40675;SDS011;26359;48.750;9.314;2022-11-20T12:36:36;4.35;;;4.05;;
40675;SDS011;26359;48.750;9.314;2022-11-20T12:42:09;6.10;;;5.47;;
40675;SDS011;26359;48.750;9.314;2022-11-20T12:50:44;5.90;;;5.50;;
40675;SDS011;26359;48.750;9.314;2022-11-20T12:53:25;5.05;;;3.92;;
40675;SDS011;26359;48.750;9.314;2022-11-20T13:04:45;4.22;;;3.92;;
40675;SDS011;26359;48.750;9.314;2022-11-20T13:07:21;6.72;;;6.32;;
40675;SDS011;26359;48.750;9.314;2022-11-20T13:09:49;8.73;;;4.90;;
40675;SDS011;26359;48.750;9.314;2022-11-20T13:12:30;5.70;;;5.40;;
40675;SDS011;26359;48.750;9.314;2022-11-20T13:17:38;7.43;;;4.47;;
40675;SDS011;26359;48.750;9.314;2022-11-20T13:20:15;4.70;;;4.47;;
40675;SDS011;26359;48.750;9.314;2022-11-20T13:22:46;6.03;;;5.53;;
40675;SDS011;26359;48.750;9.314;2022-11-20T13:28:05;5.85;;;5.32;;
40675;SDS011;26359;48.750;9.314;2022-11-20T13:30:51;5.13;;;4.73;;
40675;SDS011;26359;48.750;9.314;2022-11-20T13:33:22;4.72;;;4.30;;
40675;SDS011;26359;48.750;9.314;2022-11-20T13:36:05;6.68;;;4.03;;
40675;SDS011;26359;48.750;9.314;2022-11-20T13:38:43;4.55;;;3.17;;
40675;SDS011;26359;48.750;9.314;2022-11-20T13:41:11;4.28;;;3.97;;
40675;SDS011;26359;48.750;9.314;2022-11-20T13:43:57;4.35;;;4.05;;
40675;SDS011;26359;48.750;9.314;2022-11-20T13:46:38;4.32;;;4.00;;
40675;SDS011;26359;48.750;9.314;2022-11-20T13:49:29;4.20;;;3.08;;
40675;SDS011;26359;48.750;9.314;2022-11-20T14:00:20;5.10;;;4.03;;
40675;SDS011;26359;48.750;9.314;2022-11-20T14:03:09;5.47;;;3.85;;
40675;SDS011;26359;48.750;9.314;2022-11-20T14:05:38;3.70;;;3.38;;
40675;SDS011;26359;48.750;9.314;2022-11-20T14:08:14;4.18;;;3.88;;
40675;SDS011;26359;48.750;9.314;2022-11-20T14:10:48;4.70;;;4.07;;
40675;SDS011;26359;48.750;9.314;2022-11-20T14:13:17;4.70;;;3.78;;
40675;SDS011;26359;48.750;9.314;2022-11-20T14:15:44;4.65;;;4.38;;
40675;SDS011;26359;48.750;9.314;2022-11-20T14:18:28;4.63;;;4.07;;
40675;SDS011;26359;48.750;9.314;2022-11-20T14:20:53;5.38;;;4.88;;
40675;SDS011;26359;48.750;9.314;2022-11-20T14:23:26;5.45;;;4.22;;
40675;SDS011;26359;48.750;9.314;2022-11-20T14:25:53;4.00;;;3.70;;
40675;SDS011;26359;48.750;9.314;2022-11-20T14:28:21;3.97;;;3.53;;
40675;SDS011;26359;48.750;9.314;2022-11-20T14:30:51;4.53;;;3.88;;
40675;SDS011;26359;48.750;9.314;2022-11-20T14:33:17;5.05;;;3.45;;
40675;SDS011;26359;48.750;9.314;2022-11-20T14:35:48;4.50;;;4.10;;
40675;SDS011;26359;48.750;9.314;2022-11-20T14:38:16;4.80;;;4.38;;
40675;SDS011;26359;48.750;9.314;2022-11-20T14:40:45;4.60;;;4.30;;
40675;SDS011;26359;48.750;9.314;2022-11-20T14:43:24;4.30;;;4.00;;
40675;SDS011;26359;48.750;9.314;2022-11-20T14:46:09;4.85;;;4.53;;
40675;SDS011;26359;48.750;9.314;2022-11-20T14:48:37;4.20;;;3.85;;
40675;SDS011;26359;48.750;9.314;2022-11-20T14:51:10;5.25;;;4.72;;
40675;SDS011;26359;48.750;9.314;2022-11-20T14:53:36;5.90;;;5.28;;
40675;SDS011;26359;48.750;9.314;2022-11-20T14:56:02;4.38;;;4.00;;
40675;SDS011;26359;48.750;9.314;2022-11-20T14:58:29;4.22;;;3.83;;
40675;SDS011;26359;48.750;9.314;2022-11-20T15:01:04;4.88;;;4.18;;
40675;SDS011;26359;48.750;9.314;2022-11-20T15:03:40;7.20;;;6.60;;
40675;SDS011;26359;48.750;9.314;2022-11-20T15:06:06;7.22;;;6.20;;
40675;SDS011;26359;48.750;9.314;2022-11-20T15:08:35;5.68;;;5.28;;
40675;SDS011;26359;48.750;9.314;2022-11-20T15:11:01;6.18;;;5.75;;
40675;SDS011;26359;48.750;9.314;2022-11-20T15:13:37;4.60;;;3.08;;
40675;SDS011;26359;48.750;9.314;2022-11-20T15:16:08;4.65;;;4.32;;
40675;SDS011;26359;48.750;9.314;2022-11-20T15:18:43;4.45;;;3.50;;
40675;SDS011;26359;48.750;9.314;2022-11-20T15:21:12;5.10;;;4.70;;
40675;SDS011;26359;48.750;9.314;2022-11-20T15:23:40;4.88;;;4.57;;
40675;SDS011;26359;48.750;9.314;2022-11-20T15:26:06;4.68;;;4.38;;
40675;SDS011;26359;48.750;9.314;2022-11-20T15:28:35;4.78;;;4.38;;
40675;SDS011;26359;48.750;9.314;2022-11-20T15:31:04;3.88;;;3.50;;
40675;SDS011;26359;48.750;9.314;2022-11-20T15:33:30;3.80;;;3.50;;
40675;SDS011;26359;48.750;9.314;2022-11-20T15:35:56;5.20;;;4.82;;
40675;SDS011;26359;48.750;9.314;2022-11-20T15:38:22;9.30;;;8.70;;
40675;SDS011;26359;48.750;9.314;2022-11-20T15:40:48;7.30;;;6.80;;
40675;SDS011;26359;48.750;9.314;2022-11-20T15:43:13;5.07;;;4.78;;
40675;SDS011;26359;48.750;9.314;2022-11-20T15:45:45;4.30;;;3.90;;
40675;SDS011;26359;48.750;9.314;2022-11-20T15:48:21;8.68;;;7.97;;
40675;SDS011;26359;48.750;9.314;2022-11-20T15:53:37;4.15;;;3.75;;
40675;SDS011;26359;48.750;9.314;2022-11-20T15:56:03;3.92;;;3.53;;
40675;SDS011;26359;48.750;9.314;2022-11-20T15:58:29;5.43;;;5.03;;
40675;SDS011;26359;48.750;9.314;2022-11-20T16:00:55;5.75;;;5.35;;
40675;SDS011;26359;48.750;9.314;2022-11-20T16:03:21;5.15;;;4.85;;
40675;SDS011;26359;48.750;9.314;2022-11-20T16:05:47;4.05;;;3.60;;
40675;SDS011;26359;48.750;9.314;2022-11-20T16:08:13;4.07;;;3.67;;
40675;SDS011;26359;48.750;9.314;2022-11-20T16:10:39;4.88;;;4.57;;
40675;SDS011;26359;48.750;9.314;2022-11-20T16:13:05;4.10;;;3.70;;
40675;SDS011;26359;48.750;9.314;2022-11-20T16:15:55;5.97;;;5.55;;
40675;SDS011;26359;48.750;9.314;2022-11-20T16:18:23;7.88;;;4.97;;
40675;SDS011;26359;48.750;9.314;2022-11-20T16:20:50;4.70;;;4.20;;
40675;SDS011;26359;48.750;9.314;2022-11-20T16:23:18;3.88;;;3.30;;
40675;SDS011;26359;48.750;9.314;2022-11-20T16:25:45;7.00;;;6.50;;